FNGI

Ngjiva Pereira Airport

Ngiva, Angola
METAR FNGI 221500Z 07006KT 9999 FEW013 32/11 Q1017
Observed Flight Rules
Apr-22 @ 15:00 UTC (3 hours ago) Visual Flight Rules
Wind Visibility Clouds
70° at 6 knots 10,000+ meters
  • Few at 1,300' AGL
Temperatures Readings
Current 32°C / 90°F
Dewpoint 11°C / 52°F
Humidity 27%
Altimeter 30.03" Hg
Pressure 1017 hPa
Elevation 1087
METAR FNGI 221500Z 07006KT 9999 FEW013 32/11 Q1017
Observed Flight Rules
Apr-22 @ 15:00 UTC
(3 hours ago)
VFR
Wind Visibility
70° at 6 knots 10,000+ meters
Clouds
  • Few at 1,300' AGL
Temperature Dewpoint
32°C / 90°F 11°C / 52°F
Humidity Altimeter Pressure
27% 30.03" Hg 1017 hPa